createdAt,value
2018-03-26T00:00:17.147Z,6.10
2018-03-26T00:02:44.645Z,6.10
2018-03-26T00:05:12.882Z,6.20
2018-03-26T00:07:40.365Z,6.20
2018-03-26T00:10:08.632Z,6.30
2018-03-26T00:12:36.892Z,6.30
2018-03-26T00:15:04.376Z,6.30
2018-03-26T00:17:32.628Z,6.20
2018-03-26T00:20:00.109Z,6.20
2018-03-26T00:22:27.608Z,6.20
2018-03-26T00:24:55.067Z,6.20
2018-03-26T00:27:22.566Z,6.20
2018-03-26T00:29:50.038Z,6.30
2018-03-26T00:32:18.292Z,6.10
2018-03-26T00:34:45.778Z,6.10
2018-03-26T00:37:14.031Z,5.90
2018-03-26T00:39:41.521Z,5.80
2018-03-26T00:42:09.743Z,5.50
2018-03-26T00:44:37.219Z,5.50
2018-03-26T00:47:04.731Z,5.40
2018-03-26T00:49:32.196Z,5.20
2018-03-26T00:51:59.686Z,5.10
2018-03-26T00:54:27.161Z,5.10
2018-03-26T00:56:54.640Z,5.00
2018-03-26T00:59:22.186Z,4.90
2018-03-26T01:01:50.409Z,4.80
2018-03-26T01:04:17.905Z,4.70
2018-03-26T01:06:45.380Z,4.60
2018-03-26T01:09:13.618Z,4.40
2018-03-26T01:11:41.115Z,4.40
2018-03-26T01:14:09.357Z,4.20
2018-03-26T01:16:36.848Z,4.20
2018-03-26T01:19:05.352Z,4.10
2018-03-26T01:21:32.817Z,4.10
2018-03-26T01:24:00.300Z,4.00
2018-03-26T01:26:27.783Z,4.00
2018-03-26T01:28:55.242Z,3.90
2018-03-26T01:31:22.717Z,3.90
2018-03-26T01:33:50.408Z,3.80
2018-03-26T01:36:18.651Z,3.70
2018-03-26T01:38:46.909Z,3.70
2018-03-26T01:41:14.390Z,3.70
2018-03-26T01:43:48.776Z,3.60
2018-03-26T01:46:16.244Z,3.50
2018-03-26T01:48:43.718Z,3.50
2018-03-26T01:51:11.955Z,3.30
2018-03-26T01:53:39.449Z,3.30
2018-03-26T01:56:09.478Z,3.40
2018-03-26T01:58:36.952Z,3.40
2018-03-26T02:01:04.446Z,3.40
2018-03-26T02:03:31.956Z,3.30
2018-03-26T02:05:59.430Z,3.20
2018-03-26T02:08:33.432Z,3.30
2018-03-26T02:11:00.941Z,3.30
2018-03-26T02:13:28.413Z,3.30
2018-03-26T02:15:56.636Z,3.20
2018-03-26T02:18:24.139Z,3.20
2018-03-26T02:20:52.378Z,3.10
2018-03-26T02:23:19.874Z,3.00
2018-03-26T02:25:48.117Z,3.00
2018-03-26T02:28:15.613Z,3.00
2018-03-26T02:30:43.875Z,3.00
2018-03-26T02:33:11.340Z,3.00
2018-03-26T02:35:43.236Z,3.10
2018-03-26T02:38:10.711Z,3.10
2018-03-26T02:40:38.166Z,3.20
2018-03-26T02:43:06.439Z,3.40
2018-03-26T02:45:33.928Z,3.30
2018-03-26T02:48:01.394Z,3.30
2018-03-26T02:50:28.884Z,3.40
2018-03-26T02:52:56.367Z,3.60
2018-03-26T02:55:23.834Z,3.70
2018-03-26T02:57:52.096Z,3.70
2018-03-26T03:00:19.642Z,3.70
2018-03-26T03:02:47.118Z,3.70
2018-03-26T03:05:14.592Z,3.70
2018-03-26T03:07:42.052Z,3.80
2018-03-26T03:10:09.533Z,3.80
2018-03-26T03:12:36.993Z,3.90
2018-03-26T03:15:04.459Z,4.00
2018-03-26T03:17:32.731Z,3.90
2018-03-26T03:20:00.208Z,3.80
2018-03-26T03:22:28.629Z,4.10
2018-03-26T03:24:56.122Z,4.00
2018-03-26T03:27:24.358Z,4.00
2018-03-26T03:29:51.849Z,4.00
2018-03-26T03:32:19.323Z,4.10
2018-03-26T03:34:46.799Z,4.10
2018-03-26T03:37:14.274Z,4.20
2018-03-26T03:39:41.767Z,4.20
2018-03-26T03:42:09.249Z,4.20
2018-03-26T03:44:37.496Z,4.40
2018-03-26T03:47:04.987Z,4.30
2018-03-26T03:49:33.457Z,4.30
2018-03-26T03:52:01.716Z,4.30
2018-03-26T03:54:29.185Z,4.30
2018-03-26T03:56:56.682Z,4.30
2018-03-26T03:59:24.195Z,4.40
2018-03-26T04:01:51.660Z,4.30
2018-03-26T04:04:19.123Z,4.40
2018-03-26T04:06:46.633Z,4.50
2018-03-26T04:09:14.098Z,4.40
2018-03-26T04:11:41.572Z,4.50
2018-03-26T04:14:09.068Z,4.40
2018-03-26T04:16:37.286Z,4.50
2018-03-26T04:19:04.750Z,4.50
2018-03-26T04:21:32.240Z,4.50
2018-03-26T04:24:00.489Z,4.60
2018-03-26T04:26:27.976Z,4.60
2018-03-26T04:28:56.221Z,4.50
2018-03-26T04:31:23.673Z,4.50
2018-03-26T04:33:51.135Z,4.60
2018-03-26T04:36:19.229Z,4.50
2018-03-26T04:38:46.688Z,4.40
2018-03-26T04:41:14.133Z,4.30
2018-03-26T04:43:41.649Z,4.20
2018-03-26T04:46:09.232Z,4.10
2018-03-26T04:48:36.703Z,3.80
2018-03-26T04:51:04.203Z,3.90
2018-03-26T04:53:31.680Z,3.90
2018-03-26T04:55:59.148Z,4.00
2018-03-26T04:58:26.635Z,4.00
2018-03-26T05:00:54.122Z,4.10
2018-03-26T05:03:23.037Z,4.10
2018-03-26T05:05:50.517Z,4.00
2018-03-26T05:08:17.988Z,4.10
2018-03-26T05:10:45.452Z,4.10
2018-03-26T05:13:12.953Z,4.20
2018-03-26T05:15:40.426Z,4.20
2018-03-26T05:18:07.904Z,4.20
2018-03-26T05:20:35.385Z,4.20
2018-03-26T05:23:02.846Z,4.30
2018-03-26T05:25:30.336Z,4.30
2018-03-26T05:27:57.845Z,4.30
2018-03-26T05:30:25.316Z,4.40
2018-03-26T05:32:52.782Z,4.30
2018-03-26T05:35:21.053Z,4.30
2018-03-26T05:37:48.535Z,4.30
2018-03-26T05:40:24.264Z,3.70
2018-03-26T05:42:51.824Z,3.70
2018-03-26T05:45:19.294Z,3.50
2018-03-26T05:47:48.583Z,3.40
2018-03-26T05:50:16.825Z,3.40
2018-03-26T05:52:44.313Z,3.40
2018-03-26T05:55:11.783Z,3.50
2018-03-26T05:57:40.022Z,3.50
2018-03-26T06:00:07.543Z,3.60
2018-03-26T06:02:35.054Z,3.60
2018-03-26T06:05:02.567Z,3.60
2018-03-26T06:07:30.834Z,3.60
2018-03-26T06:09:58.318Z,3.60
2018-03-26T06:12:25.827Z,3.70
2018-03-26T06:14:53.465Z,3.60
2018-03-26T06:17:20.968Z,3.80
2018-03-26T06:19:48.484Z,3.80
2018-03-26T06:22:15.960Z,3.90
2018-03-26T06:24:43.458Z,4.00
2018-03-26T06:27:10.941Z,4.10
2018-03-26T06:29:44.336Z,4.30
2018-03-26T06:32:11.835Z,4.20
2018-03-26T06:34:40.078Z,4.20
2018-03-26T06:37:17.531Z,4.20
2018-03-26T06:39:45.021Z,4.30
2018-03-26T06:42:12.507Z,4.40
2018-03-26T06:44:40.757Z,4.50
2018-03-26T06:47:08.249Z,4.50
2018-03-26T06:49:35.737Z,4.50
2018-03-26T06:52:03.214Z,4.70
2018-03-26T06:54:30.685Z,4.70
2018-03-26T06:56:58.156Z,4.70
2018-03-26T06:59:25.658Z,4.70
2018-03-26T07:01:53.136Z,4.60
2018-03-26T07:04:20.605Z,4.60
2018-03-26T07:06:48.118Z,4.70
2018-03-26T07:09:15.601Z,4.80
2018-03-26T07:11:43.096Z,5.00
2018-03-26T07:14:10.591Z,5.00
2018-03-26T07:16:38.068Z,5.00
2018-03-26T07:19:05.539Z,4.80
2018-03-26T07:21:33.023Z,4.70
2018-03-26T07:24:00.481Z,4.70
2018-03-26T07:26:27.965Z,4.80
2018-03-26T07:28:56.275Z,4.90
2018-03-26T07:31:24.486Z,5.00
2018-03-26T07:33:51.946Z,5.00
2018-03-26T07:36:19.435Z,5.00
2018-03-26T07:38:46.927Z,5.00
2018-03-26T07:41:14.468Z,5.00
2018-03-26T07:43:42.842Z,5.10
2018-03-26T07:46:10.312Z,5.10
2018-03-26T07:48:37.799Z,5.30
2018-03-26T07:51:05.267Z,5.40
2018-03-26T07:53:32.773Z,5.50
2018-03-26T07:56:00.343Z,5.60
2018-03-26T07:58:27.813Z,5.50
2018-03-26T08:00:55.334Z,5.50
2018-03-26T08:03:23.560Z,5.70
2018-03-26T08:05:51.060Z,5.70
2018-03-26T08:08:19.282Z,5.70
2018-03-26T08:10:46.766Z,5.70
2018-03-26T08:13:14.276Z,5.90
2018-03-26T08:15:41.756Z,5.90
2018-03-26T08:18:09.227Z,5.90
2018-03-26T08:20:37.482Z,6.10
2018-03-26T08:23:04.947Z,6.10
2018-03-26T08:25:32.415Z,6.00
2018-03-26T08:27:59.902Z,5.90
2018-03-26T08:30:28.144Z,6.00
2018-03-26T08:32:55.619Z,6.00
2018-03-26T08:35:23.147Z,6.10
2018-03-26T08:37:50.640Z,6.10
2018-03-26T08:40:18.105Z,6.20
2018-03-26T08:42:45.599Z,6.10
2018-03-26T08:45:13.108Z,6.10
2018-03-26T08:47:40.585Z,5.90
2018-03-26T08:50:14.894Z,5.70
2018-03-26T08:52:42.369Z,5.70
2018-03-26T08:55:10.645Z,5.70
2018-03-26T08:57:38.114Z,5.70
2018-03-26T09:00:05.759Z,5.80
2018-03-26T09:02:33.263Z,5.80
2018-03-26T09:05:00.777Z,5.90
2018-03-26T09:07:28.299Z,5.90
2018-03-26T09:09:55.806Z,5.90
2018-03-26T09:12:23.292Z,6.00
2018-03-26T09:14:50.776Z,5.90
2018-03-26T09:17:18.279Z,5.90
2018-03-26T09:19:45.767Z,6.00
2018-03-26T09:22:13.257Z,6.00
2018-03-26T09:24:40.740Z,5.90
2018-03-26T09:27:08.250Z,6.10
2018-03-26T09:29:35.753Z,6.40
2018-03-26T09:32:04.014Z,6.60
2018-03-26T09:34:32.240Z,7.00
2018-03-26T09:36:59.734Z,7.00
2018-03-26T09:39:27.201Z,7.10
2018-03-26T09:41:54.670Z,7.00
2018-03-26T09:44:22.160Z,7.00
2018-03-26T09:46:49.656Z,7.00
2018-03-26T09:49:17.137Z,7.10
2018-03-26T09:51:45.974Z,6.90
2018-03-26T09:54:13.454Z,6.90
2018-03-26T09:56:40.941Z,7.20
2018-03-26T09:59:09.203Z,8.10
2018-03-26T10:01:42.377Z,8.00
2018-03-26T10:04:09.873Z,8.30
2018-03-26T10:06:38.112Z,8.20
2018-03-26T10:09:05.584Z,8.20
2018-03-26T10:11:33.118Z,8.40
2018-03-26T10:14:00.605Z,8.30
2018-03-26T10:16:28.090Z,8.20
2018-03-26T10:18:55.592Z,8.20
2018-03-26T10:21:23.112Z,8.10
2018-03-26T10:23:50.592Z,8.20
2018-03-26T10:26:18.082Z,8.30
2018-03-26T10:28:45.547Z,8.10
2018-03-26T10:31:13.083Z,8.00
2018-03-26T10:33:40.581Z,8.00
2018-03-26T10:36:08.824Z,8.60
2018-03-26T10:38:36.299Z,8.60
2018-03-26T10:41:03.783Z,9.30
2018-03-26T10:43:32.041Z,9.50
2018-03-26T10:46:00.276Z,9.10
2018-03-26T10:48:27.763Z,9.10
2018-03-26T10:50:55.235Z,9.10
2018-03-26T10:53:23.463Z,9.90
2018-03-26T10:55:50.960Z,9.90
2018-03-26T10:58:19.235Z,10.30
2018-03-26T11:00:47.496Z,10.40
2018-03-26T11:03:14.951Z,10.40
2018-03-26T11:05:42.501Z,10.50
2018-03-26T11:08:09.963Z,10.70
2018-03-26T11:10:37.459Z,10.60
2018-03-26T11:13:04.992Z,10.40
2018-03-26T11:15:32.472Z,10.20
2018-03-26T11:18:00.730Z,10.00
2018-03-26T11:20:28.250Z,10.00
2018-03-26T11:22:55.727Z,10.00
2018-03-26T11:25:23.232Z,10.30
2018-03-26T11:27:50.720Z,10.60
2018-03-26T11:30:18.202Z,10.80
2018-03-26T11:32:45.684Z,11.10
2018-03-26T11:35:13.943Z,11.90
2018-03-26T11:37:41.436Z,11.90
2018-03-26T11:40:08.926Z,12.20
2018-03-26T11:42:36.381Z,12.30
2018-03-26T11:45:03.894Z,12.20
2018-03-26T11:47:32.136Z,11.60
2018-03-26T11:49:59.643Z,11.50
2018-03-26T11:52:27.148Z,11.20
2018-03-26T11:54:54.644Z,11.20
2018-03-26T11:57:23.751Z,11.00
2018-03-26T11:59:52.330Z,11.00
2018-03-26T12:02:19.872Z,11.10
2018-03-26T12:04:48.117Z,11.40
2018-03-26T12:07:15.617Z,11.40
2018-03-26T12:09:43.875Z,11.80
2018-03-26T12:12:11.365Z,11.90
2018-03-26T12:14:39.149Z,11.60
2018-03-26T12:17:06.874Z,10.80
2018-03-26T12:19:35.143Z,10.90
2018-03-26T12:22:03.387Z,11.20
2018-03-26T12:24:42.860Z,11.20
2018-03-26T12:27:11.119Z,10.80
2018-03-26T12:29:50.366Z,10.80
2018-03-26T12:32:18.631Z,11.20
2018-03-26T12:34:58.031Z,11.30
2018-03-26T12:37:25.522Z,11.50
2018-03-26T12:39:53.024Z,11.40
2018-03-26T12:42:20.511Z,11.70
2018-03-26T12:44:59.842Z,11.90
2018-03-26T12:47:27.303Z,12.00
2018-03-26T12:49:54.788Z,12.20
2018-03-26T12:52:34.224Z,12.40
2018-03-26T12:55:01.688Z,12.80
2018-03-26T12:57:41.544Z,13.00
2018-03-26T13:00:09.027Z,13.10
2018-03-26T13:02:36.548Z,13.20
2018-03-26T13:05:04.795Z,13.50
2018-03-26T13:07:32.296Z,13.50
2018-03-26T13:10:00.586Z,13.90
2018-03-26T13:12:28.818Z,14.60
2018-03-26T13:14:56.315Z,14.60
2018-03-26T13:17:24.563Z,14.80
2018-03-26T13:19:52.133Z,14.80
2018-03-26T13:22:20.452Z,14.90
2018-03-26T13:24:47.923Z,14.90
2018-03-26T13:27:15.474Z,13.00
2018-03-26T13:29:42.974Z,11.90
2018-03-26T13:32:10.468Z,11.80
2018-03-26T13:34:38.006Z,12.20
2018-03-26T13:37:06.299Z,12.10
2018-03-26T13:39:33.812Z,12.10
2018-03-26T13:42:01.296Z,12.20
2018-03-26T13:44:28.804Z,12.00
2018-03-26T13:46:56.392Z,12.40
2018-03-26T13:49:23.891Z,12.20
2018-03-26T13:51:51.400Z,11.90
2018-03-26T13:54:18.893Z,12.00
2018-03-26T13:56:47.132Z,11.70
2018-03-26T13:59:14.636Z,11.70
2018-03-26T14:01:42.142Z,11.40
2018-03-26T14:04:09.648Z,11.00
2018-03-26T14:06:37.893Z,11.00
2018-03-26T14:09:17.211Z,10.90
2018-03-26T14:11:56.513Z,11.10
2018-03-26T14:14:35.828Z,11.30
2018-03-26T14:17:15.161Z,11.30
2018-03-26T14:19:42.682Z,11.40
2018-03-26T14:22:10.221Z,11.20
2018-03-26T14:24:37.734Z,10.90
2018-03-26T14:27:05.986Z,10.80
2018-03-26T14:29:33.540Z,10.90
2018-03-26T14:32:01.005Z,10.80
2018-03-26T14:34:28.501Z,10.90
2018-03-26T14:36:56.775Z,10.90
2018-03-26T14:39:24.272Z,10.90
2018-03-26T14:41:51.769Z,10.70
2018-03-26T14:44:20.052Z,10.50
2018-03-26T14:46:47.527Z,10.50
2018-03-26T14:49:15.040Z,10.60
2018-03-26T14:51:42.500Z,10.20
2018-03-26T14:54:09.988Z,10.30
2018-03-26T14:56:37.491Z,10.40
2018-03-26T14:59:04.991Z,10.60
2018-03-26T15:01:32.519Z,10.90
2018-03-26T15:04:01.797Z,10.70
2018-03-26T15:06:29.304Z,10.50
2018-03-26T15:08:57.610Z,10.00
2018-03-26T15:11:25.107Z,9.90
2018-03-26T15:13:52.626Z,9.80
2018-03-26T15:16:20.120Z,9.70
2018-03-26T15:18:47.620Z,9.70
2018-03-26T15:21:15.890Z,9.60
2018-03-26T15:23:44.132Z,9.50
2018-03-26T15:26:11.632Z,9.50
2018-03-26T15:28:39.883Z,9.30
2018-03-26T15:31:07.698Z,9.30
2018-03-26T15:33:35.183Z,9.20
2018-03-26T15:36:02.656Z,9.10
2018-03-26T15:38:30.188Z,9.10
2018-03-26T15:40:57.662Z,9.10
2018-03-26T15:43:25.139Z,8.90
2018-03-26T15:45:52.655Z,8.90
2018-03-26T15:48:20.132Z,8.80
2018-03-26T15:50:47.623Z,8.80
2018-03-26T15:53:15.872Z,8.70
2018-03-26T15:55:43.348Z,8.70
2018-03-26T15:58:11.684Z,8.70
2018-03-26T16:00:39.888Z,8.70
2018-03-26T16:03:13.020Z,8.60
2018-03-26T16:05:40.507Z,8.60
2018-03-26T16:08:07.981Z,8.50
2018-03-26T16:10:35.497Z,8.50
2018-03-26T16:13:02.995Z,8.40
2018-03-26T16:15:30.476Z,8.30
2018-03-26T16:17:58.744Z,8.40
2018-03-26T16:20:26.225Z,8.30
2018-03-26T16:22:54.471Z,8.30
2018-03-26T16:25:21.970Z,8.30
2018-03-26T16:27:49.467Z,8.30
2018-03-26T16:30:16.951Z,8.20
2018-03-26T16:32:44.429Z,8.20
2018-03-26T16:35:12.668Z,8.20
2018-03-26T16:37:40.162Z,8.20
2018-03-26T16:40:08.416Z,8.10
2018-03-26T16:42:42.623Z,8.10
2018-03-26T16:45:10.104Z,8.10
2018-03-26T16:47:38.362Z,8.00
2018-03-26T16:50:05.842Z,8.00
2018-03-26T16:52:34.116Z,7.90
2018-03-26T16:55:02.381Z,7.90
2018-03-26T16:57:30.640Z,7.90
2018-03-26T16:59:58.120Z,7.90
2018-03-26T17:02:26.356Z,7.80
2018-03-26T17:04:53.905Z,7.80
2018-03-26T17:07:21.365Z,7.60
2018-03-26T17:09:48.877Z,7.60
2018-03-26T17:12:16.349Z,7.50
2018-03-26T17:14:43.852Z,7.50
2018-03-26T17:17:11.339Z,7.40
2018-03-26T17:19:38.878Z,7.40
2018-03-26T17:22:06.403Z,7.30
2018-03-26T17:24:33.864Z,7.30
2018-03-26T17:27:01.403Z,7.40
2018-03-26T17:29:28.905Z,7.50
2018-03-26T17:31:56.376Z,7.40
2018-03-26T17:34:23.860Z,7.40
2018-03-26T17:36:51.322Z,7.40
2018-03-26T17:39:18.806Z,7.30
2018-03-26T17:41:46.302Z,7.20
2018-03-26T17:44:14.547Z,6.90
2018-03-26T17:46:42.015Z,6.90
2018-03-26T17:49:09.550Z,6.80
2018-03-26T17:51:37.021Z,6.70
2018-03-26T17:54:04.527Z,6.50
2018-03-26T17:56:32.783Z,6.30
2018-03-26T17:59:00.298Z,6.40
2018-03-26T18:01:27.794Z,6.30
2018-03-26T18:03:55.272Z,6.20
2018-03-26T18:06:22.797Z,6.10
2018-03-26T18:08:50.279Z,6.10
2018-03-26T18:11:18.559Z,6.10
2018-03-26T18:13:46.814Z,6.20
2018-03-26T18:16:14.302Z,6.20
2018-03-26T18:18:42.791Z,6.30
2018-03-26T18:21:10.318Z,6.20
2018-03-26T18:23:37.817Z,6.10
2018-03-26T18:26:05.305Z,6.10
2018-03-26T18:28:32.807Z,6.20
2018-03-26T18:31:00.315Z,5.90
2018-03-26T18:33:27.801Z,5.90
2018-03-26T18:35:55.298Z,5.90
2018-03-26T18:38:23.566Z,5.70
2018-03-26T18:40:51.063Z,5.70
2018-03-26T18:43:18.559Z,5.50
2018-03-26T18:45:46.849Z,5.40
2018-03-26T18:48:15.152Z,5.30
2018-03-26T18:50:42.642Z,5.30
2018-03-26T18:53:10.182Z,5.20
2018-03-26T18:55:38.423Z,5.10
2018-03-26T18:58:06.742Z,4.90
2018-03-26T19:00:34.261Z,4.90
2018-03-26T19:03:01.796Z,4.90
2018-03-26T19:05:29.273Z,4.80
2018-03-26T19:07:56.737Z,4.70
2018-03-26T19:10:24.232Z,4.60
2018-03-26T19:12:51.732Z,4.60
2018-03-26T19:15:19.243Z,4.60
2018-03-26T19:17:46.763Z,4.50
2018-03-26T19:20:14.272Z,4.60
2018-03-26T19:22:41.820Z,4.40
2018-03-26T19:25:09.319Z,4.40
2018-03-26T19:27:36.798Z,4.30
2018-03-26T19:30:04.315Z,4.20
2018-03-26T19:32:31.835Z,4.10
2018-03-26T19:34:59.296Z,4.00
2018-03-26T19:37:26.796Z,4.00
2018-03-26T19:39:54.277Z,3.90
2018-03-26T19:42:22.568Z,3.80
2018-03-26T19:44:50.086Z,3.80
2018-03-26T19:47:17.567Z,3.90
2018-03-26T19:49:45.061Z,3.80
2018-03-26T19:52:12.548Z,3.70
2018-03-26T19:54:40.054Z,3.60
2018-03-26T19:57:07.541Z,3.50
2018-03-26T19:59:35.064Z,3.50
2018-03-26T20:02:02.569Z,3.40
2018-03-26T20:04:31.982Z,3.30
2018-03-26T20:06:59.597Z,3.30
2018-03-26T20:09:27.075Z,3.30
2018-03-26T20:11:54.578Z,3.40
2018-03-26T20:14:22.110Z,3.40
2018-03-26T20:16:56.084Z,3.50
2018-03-26T20:19:24.684Z,3.40
2018-03-26T20:21:58.753Z,3.40
2018-03-26T20:24:26.276Z,3.30
2018-03-26T20:26:53.808Z,3.30
2018-03-26T20:29:21.307Z,3.20
2018-03-26T20:31:48.857Z,3.00
2018-03-26T20:34:16.368Z,2.90
2018-03-26T20:36:43.868Z,2.90
2018-03-26T20:39:11.377Z,2.70
2018-03-26T20:41:38.870Z,2.70
2018-03-26T20:44:06.358Z,2.70
2018-03-26T20:46:33.867Z,2.80
2018-03-26T20:49:01.418Z,2.70
2018-03-26T20:51:28.921Z,2.60
2018-03-26T20:53:56.411Z,2.60
2018-03-26T20:56:23.908Z,2.50
2018-03-26T20:58:51.428Z,2.70
2018-03-26T21:01:18.961Z,2.60
2018-03-26T21:03:46.472Z,2.60
2018-03-26T21:06:13.978Z,2.60
2018-03-26T21:08:41.483Z,2.60
2018-03-26T21:11:08.993Z,2.60
2018-03-26T21:13:36.499Z,2.70
2018-03-26T21:16:03.999Z,2.70
2018-03-26T21:18:31.471Z,2.80
2018-03-26T21:20:58.977Z,2.90
2018-03-26T21:23:26.480Z,2.90
2018-03-26T21:25:53.960Z,2.90
2018-03-26T21:28:22.544Z,2.70
2018-03-26T21:30:50.060Z,2.90
2018-03-26T21:33:17.544Z,2.90
2018-03-26T21:35:45.851Z,2.90
2018-03-26T21:38:14.101Z,3.00
2018-03-26T21:40:41.945Z,2.90
2018-03-26T21:43:09.438Z,2.80
2018-03-26T21:45:41.047Z,2.70
2018-03-26T21:48:08.608Z,2.70
2018-03-26T21:50:36.103Z,2.80
2018-03-26T21:53:03.623Z,2.70
2018-03-26T21:55:31.174Z,2.70
2018-03-26T21:57:58.684Z,2.60
2018-03-26T22:00:26.222Z,2.60
2018-03-26T22:02:53.706Z,2.50
2018-03-26T22:05:28.303Z,2.70
2018-03-26T22:07:55.790Z,2.60
2018-03-26T22:10:24.064Z,2.70
2018-03-26T22:12:52.367Z,2.80
2018-03-26T22:15:19.854Z,2.70
2018-03-26T22:17:47.354Z,2.70
2018-03-26T22:20:15.610Z,2.60
2018-03-26T22:22:43.102Z,2.60
2018-03-26T22:25:10.596Z,2.60
2018-03-26T22:27:38.063Z,2.70
2018-03-26T22:30:05.592Z,2.60
2018-03-26T22:32:33.064Z,2.60
2018-03-26T22:35:00.531Z,2.60
2018-03-26T22:37:28.041Z,2.60
2018-03-26T22:39:56.081Z,2.60
2018-03-26T22:42:23.572Z,2.70
2018-03-26T22:44:51.065Z,2.70
2018-03-26T22:47:18.558Z,2.70
2018-03-26T22:49:46.070Z,2.70
2018-03-26T22:52:13.574Z,2.60
2018-03-26T22:54:41.071Z,2.70
2018-03-26T22:57:08.560Z,2.50
2018-03-26T22:59:36.086Z,2.50
2018-03-26T23:02:03.587Z,2.50
2018-03-26T23:04:31.085Z,2.50
2018-03-26T23:06:58.630Z,2.50
2018-03-26T23:09:26.146Z,2.50
2018-03-26T23:11:53.617Z,2.50
2018-03-26T23:14:21.123Z,2.50
2018-03-26T23:16:48.614Z,2.50
2018-03-26T23:19:16.136Z,2.40
2018-03-26T23:21:43.623Z,2.50
2018-03-26T23:24:11.114Z,2.50
2018-03-26T23:26:38.632Z,2.60
2018-03-26T23:29:10.001Z,2.70
2018-03-26T23:31:37.503Z,2.60
2018-03-26T23:34:05.000Z,2.60
2018-03-26T23:36:32.497Z,2.50
2018-03-26T23:39:00.003Z,2.30
2018-03-26T23:41:27.545Z,2.20
2018-03-26T23:43:55.045Z,2.10
2018-03-26T23:46:22.531Z,2.10
2018-03-26T23:48:50.012Z,2.00
2018-03-26T23:51:17.573Z,2.10
2018-03-26T23:53:45.059Z,2.30
2018-03-26T23:56:12.537Z,2.20
2018-03-26T23:58:40.044Z,2.00
